createdAt,value
2023-04-26T00:00:04.419Z,98806.89
2023-04-26T00:01:09.237Z,98808.73
2023-04-26T00:02:12.516Z,98815.78
2023-04-26T00:03:15.845Z,98812.23
2023-04-26T00:04:18.693Z,98812.23
2023-04-26T00:05:22.840Z,98807.02
2023-04-26T00:06:27.146Z,98809.82
2023-04-26T00:07:30.177Z,98808.86
2023-04-26T00:08:33.445Z,98806.19
2023-04-26T00:09:35.939Z,98814.07
2023-04-26T00:10:40.152Z,98814.07
2023-04-26T00:11:42.747Z,98809.56
2023-04-26T00:12:45.968Z,98811.40
2023-04-26T00:13:48.658Z,98811.40
2023-04-26T00:14:51.809Z,98809.56
2023-04-26T00:15:55.119Z,98814.91
2023-04-26T00:16:59.666Z,98822.09
2023-04-26T00:18:03.379Z,98822.09
2023-04-26T00:19:06.543Z,98823.80
2023-04-26T00:20:12.344Z,98818.55
2023-04-26T00:21:16.210Z,98822.09
2023-04-26T00:22:20.465Z,98814.91
2023-04-26T00:23:23.272Z,98825.59
2023-04-26T00:24:27.024Z,98818.45
2023-04-26T00:25:29.985Z,98830.94
2023-04-26T00:26:33.917Z,98820.25
2023-04-26T00:27:37.000Z,98818.45
2023-04-26T00:28:39.805Z,98827.30
2023-04-26T00:29:42.241Z,98817.58
2023-04-26T00:30:47.158Z,98824.75
2023-04-26T00:31:50.126Z,98820.25
2023-04-26T00:32:53.732Z,98821.22
2023-04-26T00:33:56.616Z,98821.22
2023-04-26T00:34:59.813Z,98822.09
2023-04-26T00:36:03.202Z,98825.59
2023-04-26T00:37:06.234Z,98821.22
2023-04-26T00:38:09.935Z,98828.39
2023-04-26T00:39:13.227Z,98822.09
2023-04-26T00:40:16.815Z,98824.75
2023-04-26T00:41:33.345Z,98822.92
2023-04-26T00:42:37.548Z,98820.25
2023-04-26T00:43:41.333Z,98821.95
2023-04-26T00:44:44.291Z,98821.13
2023-04-26T00:45:47.258Z,98827.30
2023-04-26T00:46:51.960Z,98828.14
2023-04-26T00:47:55.085Z,98829.97
2023-04-26T00:48:57.783Z,98820.25
2023-04-26T00:50:01.043Z,98826.47
2023-04-26T00:51:05.219Z,98824.63
2023-04-26T00:52:09.731Z,98825.59
2023-04-26T00:53:14.231Z,98826.47
2023-04-26T00:54:17.273Z,98825.59
2023-04-26T00:55:21.734Z,98826.47
2023-04-26T00:56:24.712Z,98824.75
2023-04-26T00:57:29.922Z,98828.27
2023-04-26T00:58:32.702Z,98827.43
2023-04-26T00:59:35.969Z,98824.63
2023-04-26T01:00:38.921Z,98828.27
2023-04-26T01:01:42.073Z,98828.27
2023-04-26T01:02:44.996Z,98826.47
2023-04-26T01:03:48.657Z,98825.59
2023-04-26T01:04:52.135Z,98828.27
2023-04-26T01:05:55.769Z,98824.75
2023-04-26T01:07:00.019Z,98824.75
2023-04-26T01:08:04.248Z,98819.41
2023-04-26T01:09:10.533Z,98828.27
2023-04-26T01:10:14.034Z,98825.59
2023-04-26T01:11:17.149Z,98818.45
2023-04-26T01:12:20.649Z,98823.89
2023-04-26T01:13:23.946Z,98824.75
2023-04-26T01:14:26.656Z,98827.43
2023-04-26T01:15:31.377Z,98827.43
2023-04-26T01:16:34.784Z,98827.43
2023-04-26T01:17:38.266Z,98826.47
2023-04-26T01:18:42.344Z,98824.75
2023-04-26T01:19:49.047Z,98827.43
2023-04-26T01:20:53.070Z,98824.75
2023-04-26T01:21:56.690Z,98824.75
2023-04-26T01:23:00.813Z,98827.43
2023-04-26T01:24:05.786Z,98822.92
2023-04-26T01:25:11.563Z,98822.09
2023-04-26T01:26:14.640Z,98822.92
2023-04-26T01:27:18.016Z,98826.47
2023-04-26T01:28:20.982Z,98818.55
2023-04-26T01:29:23.824Z,98820.37
2023-04-26T01:30:26.789Z,98825.72
2023-04-26T01:31:29.807Z,98811.40
2023-04-26T01:32:34.697Z,98820.25
2023-04-26T01:33:37.795Z,98808.73
2023-04-26T01:34:40.909Z,98818.55
2023-04-26T01:35:43.902Z,98817.58
2023-04-26T01:36:46.834Z,98819.41
2023-04-26T01:37:50.057Z,98813.20
2023-04-26T01:38:52.944Z,98813.20
2023-04-26T01:39:57.629Z,98814.07
2023-04-26T01:41:01.758Z,98818.55
2023-04-26T01:42:06.945Z,98803.52
2023-04-26T01:43:11.689Z,98811.40
2023-04-26T01:44:14.978Z,98810.66
2023-04-26T01:45:17.912Z,98803.52
2023-04-26T01:46:39.389Z,98813.33
2023-04-26T01:47:42.295Z,98814.20
2023-04-26T01:48:45.080Z,98808.86
2023-04-26T01:49:48.200Z,98808.86
2023-04-26T01:50:51.347Z,98809.70
2023-04-26T01:51:55.532Z,98811.53
2023-04-26T01:52:59.610Z,98812.36
2023-04-26T01:54:02.535Z,98808.86
2023-04-26T01:55:06.904Z,98816.88
2023-04-26T01:56:10.361Z,98812.49
2023-04-26T01:57:13.360Z,98805.31
2023-04-26T01:58:16.217Z,98803.52
2023-04-26T01:59:19.241Z,98804.48
2023-04-26T02:00:22.609Z,98803.64
2023-04-26T02:01:26.723Z,98805.44
2023-04-26T02:02:29.508Z,98799.97
2023-04-26T02:03:33.069Z,98801.80
2023-04-26T02:04:37.100Z,98799.97
2023-04-26T02:05:40.406Z,98800.84
2023-04-26T02:06:43.347Z,98806.19
2023-04-26T02:07:46.548Z,98804.35
2023-04-26T02:08:49.921Z,98797.30
2023-04-26T02:09:52.859Z,98808.86
2023-04-26T02:10:56.057Z,98800.97
2023-04-26T02:12:00.905Z,98797.30
2023-04-26T02:13:03.827Z,98799.97
2023-04-26T02:14:07.091Z,98805.19
2023-04-26T02:15:11.506Z,98801.68
2023-04-26T02:16:17.258Z,98797.30
2023-04-26T02:17:22.276Z,98801.68
2023-04-26T02:18:38.542Z,98792.83
2023-04-26T02:19:41.549Z,98800.72
2023-04-26T02:20:45.535Z,98805.19
2023-04-26T02:21:55.421Z,98804.22
2023-04-26T02:22:58.547Z,98797.17
2023-04-26T02:24:01.258Z,98799.84
2023-04-26T02:25:05.793Z,98804.22
2023-04-26T02:26:09.505Z,98798.88
2023-04-26T02:27:12.422Z,98798.88
2023-04-26T02:28:16.311Z,98805.93
2023-04-26T02:29:26.547Z,98808.60
2023-04-26T02:30:24.170Z,98805.09
2023-04-26T02:31:28.630Z,98807.77
2023-04-26T02:32:31.598Z,98809.56
2023-04-26T02:33:35.462Z,98809.56
2023-04-26T02:34:38.486Z,98810.44
2023-04-26T02:35:41.662Z,98800.72
2023-04-26T02:36:45.059Z,98805.09
2023-04-26T02:37:51.803Z,98815.78
2023-04-26T02:38:56.282Z,98797.08
2023-04-26T02:39:59.056Z,98801.42
2023-04-26T02:41:02.769Z,98797.08
2023-04-26T02:42:10.128Z,98803.38
2023-04-26T02:43:13.494Z,98802.42
2023-04-26T02:44:17.205Z,98805.09
2023-04-26T02:45:20.146Z,98806.06
2023-04-26T02:46:22.951Z,98804.22
2023-04-26T02:47:25.959Z,98812.23
2023-04-26T02:48:29.287Z,98807.77
2023-04-26T02:49:32.492Z,98810.44
2023-04-26T02:50:35.876Z,98806.06
2023-04-26T02:51:38.756Z,98804.22
2023-04-26T02:52:42.356Z,98809.56
2023-04-26T02:53:46.091Z,98802.52
2023-04-26T02:54:49.732Z,98798.05
2023-04-26T02:55:52.521Z,98792.70
2023-04-26T02:56:57.806Z,98799.84
2023-04-26T02:58:02.175Z,98792.57
2023-04-26T02:59:05.053Z,98797.91
2023-04-26T03:00:08.836Z,98795.38
2023-04-26T03:01:13.253Z,98791.73
2023-04-26T03:02:18.017Z,98796.20
2023-04-26T03:03:22.316Z,98796.20
2023-04-26T03:04:25.390Z,98790.87
2023-04-26T03:05:28.371Z,98790.87
2023-04-26T03:06:31.461Z,98789.06
2023-04-26T03:07:34.971Z,98790.87
2023-04-26T03:08:37.954Z,98786.48
2023-04-26T03:09:41.655Z,98774.84
2023-04-26T03:10:46.062Z,98785.52
2023-04-26T03:11:50.222Z,98776.67
2023-04-26T03:12:53.515Z,98778.25
2023-04-26T03:13:57.347Z,98778.38
2023-04-26T03:15:02.037Z,98778.38
2023-04-26T03:16:06.714Z,98777.38
2023-04-26T03:17:10.218Z,98788.06
2023-04-26T03:18:14.391Z,98788.06
2023-04-26T03:19:18.512Z,98785.39
2023-04-26T03:20:21.710Z,98789.77
2023-04-26T03:21:24.931Z,98790.61
2023-04-26T03:22:27.466Z,98781.76
2023-04-26T03:23:31.700Z,98780.92
2023-04-26T03:24:34.654Z,98783.59
2023-04-26T03:25:37.432Z,98781.76
2023-04-26T03:26:40.929Z,98781.89
2023-04-26T03:27:43.750Z,98780.92
2023-04-26T03:28:47.724Z,98786.27
2023-04-26T03:29:52.160Z,98779.09
2023-04-26T03:30:55.612Z,98782.59
2023-04-26T03:31:58.442Z,98781.76
2023-04-26T03:33:03.249Z,98781.76
2023-04-26T03:34:08.072Z,98789.77
2023-04-26T03:35:11.361Z,98784.30
2023-04-26T03:36:17.858Z,98780.80
2023-04-26T03:37:21.662Z,98789.64
2023-04-26T03:38:27.004Z,98780.80
2023-04-26T03:39:30.157Z,98779.92
2023-04-26T03:40:33.777Z,98791.48
2023-04-26T03:41:40.023Z,98790.61
2023-04-26T03:42:43.788Z,98794.16
2023-04-26T03:43:46.514Z,98792.45
2023-04-26T03:44:49.406Z,98797.79
2023-04-26T03:45:52.449Z,98798.63
2023-04-26T03:46:56.219Z,98803.97
2023-04-26T03:48:00.039Z,98795.95
2023-04-26T03:49:03.191Z,98805.80
2023-04-26T03:50:08.088Z,98806.64
2023-04-26T03:51:10.925Z,98802.30
2023-04-26T03:52:16.055Z,98805.80
2023-04-26T03:53:18.815Z,98808.34
2023-04-26T03:54:22.686Z,98806.64
2023-04-26T03:55:25.753Z,98805.80
2023-04-26T03:56:28.773Z,98806.64
2023-04-26T03:57:31.880Z,98810.18
2023-04-26T03:58:37.463Z,98813.69
2023-04-26T03:59:41.060Z,98806.77
2023-04-26T04:00:44.727Z,98809.31
2023-04-26T04:01:48.408Z,98805.80
2023-04-26T04:02:52.294Z,98803.13
2023-04-26T04:03:57.476Z,98801.30
2023-04-26T04:05:00.824Z,98803.13
2023-04-26T04:06:04.612Z,98801.30
2023-04-26T04:07:07.796Z,98804.84
2023-04-26T04:08:10.697Z,98804.84
2023-04-26T04:09:14.488Z,98799.63
2023-04-26T04:10:17.716Z,98804.84
2023-04-26T04:11:22.226Z,98803.00
2023-04-26T04:12:25.370Z,98798.53
2023-04-26T04:13:28.091Z,98799.37
2023-04-26T04:14:32.299Z,98799.37
2023-04-26T04:15:35.692Z,98799.37
2023-04-26T04:16:39.828Z,98808.34
2023-04-26T04:17:43.160Z,98798.53
2023-04-26T04:18:46.926Z,98802.04
2023-04-26T04:19:50.637Z,98797.53
2023-04-26T04:20:55.767Z,98794.86
2023-04-26T04:23:12.536Z,98794.00
2023-04-26T04:24:17.145Z,98786.84
2023-04-26T04:25:21.773Z,98781.50
2023-04-26T04:26:26.199Z,98775.32
2023-04-26T04:27:29.007Z,98775.32
2023-04-26T04:29:47.218Z,98767.41
2023-04-26T04:30:50.854Z,98776.16
2023-04-26T04:33:07.074Z,98783.31
2023-04-26T04:34:11.074Z,98771.69
2023-04-26T04:35:15.870Z,98773.48
2023-04-26T04:36:19.164Z,98774.36
2023-04-26T04:37:23.316Z,98773.36
2023-04-26T04:38:25.995Z,98772.52
2023-04-26T04:39:30.177Z,98781.37
2023-04-26T04:40:34.085Z,98784.91
2023-04-26T04:41:37.279Z,98789.27
2023-04-26T04:42:40.155Z,98788.42
2023-04-26T04:43:44.304Z,98790.26
2023-04-26T04:44:47.103Z,98791.09
2023-04-26T04:45:50.464Z,98789.27
2023-04-26T04:46:54.149Z,98791.09
2023-04-26T04:47:59.568Z,98786.59
2023-04-26T04:49:02.740Z,98780.41
2023-04-26T04:50:07.867Z,98785.75
2023-04-26T04:51:11.556Z,98785.75
2023-04-26T04:52:15.799Z,98781.37
2023-04-26T04:53:19.954Z,98783.08
2023-04-26T04:54:23.300Z,98786.59
2023-04-26T04:55:27.026Z,98780.41
2023-04-26T04:56:30.943Z,98777.61
2023-04-26T04:57:34.244Z,98776.77
2023-04-26T04:58:37.415Z,98779.45
2023-04-26T04:59:42.779Z,98780.41
2023-04-26T05:00:47.050Z,98777.61
2023-04-26T05:03:09.928Z,98772.36
2023-04-26T05:04:14.744Z,98774.09
2023-04-26T05:05:18.790Z,98773.23
2023-04-26T05:06:22.238Z,98772.39
2023-04-26T05:07:25.298Z,98767.89
2023-04-26T05:08:29.535Z,98774.09
2023-04-26T05:09:34.973Z,98774.09
2023-04-26T05:10:38.444Z,98771.43
2023-04-26T05:11:41.828Z,98770.56
2023-04-26T05:12:45.999Z,98777.61
2023-04-26T05:13:50.902Z,98780.28
2023-04-26T05:14:54.586Z,98775.06
2023-04-26T05:15:59.122Z,98784.78
2023-04-26T05:17:03.404Z,98779.45
2023-04-26T05:18:06.242Z,98775.06
2023-04-26T05:19:09.978Z,98777.73
2023-04-26T05:20:15.210Z,98781.25
2023-04-26T05:21:18.365Z,98775.06
2023-04-26T05:22:22.408Z,98779.57
2023-04-26T05:23:26.272Z,98777.73
2023-04-26T05:24:30.989Z,98774.36
2023-04-26T05:25:39.936Z,98782.37
2023-04-26T05:27:03.624Z,98774.36
2023-04-26T05:28:13.030Z,98785.05
2023-04-26T05:29:20.525Z,98782.37
2023-04-26T05:30:25.861Z,98783.21
2023-04-26T05:31:41.472Z,98792.06
2023-04-26T05:32:59.979Z,98793.89
2023-04-26T05:34:11.069Z,98791.35
2023-04-26T05:36:29.965Z,98788.78
2023-04-26T05:37:33.917Z,98797.66
2023-04-26T05:38:37.495Z,98796.83
2023-04-26T05:39:40.272Z,98798.63
2023-04-26T05:40:43.426Z,98798.63
2023-04-26T05:41:46.793Z,98792.45
2023-04-26T05:42:51.701Z,98801.30
2023-04-26T05:43:55.440Z,98792.31
2023-04-26T05:44:59.740Z,98794.98
2023-04-26T05:46:04.915Z,98796.70
2023-04-26T05:47:08.149Z,98797.53
2023-04-26T05:48:11.105Z,98792.31
2023-04-26T05:49:16.621Z,98785.17
2023-04-26T05:50:20.216Z,98797.66
2023-04-26T05:51:23.527Z,98809.22
2023-04-26T05:52:26.880Z,98812.73
2023-04-26T05:53:30.498Z,98807.38
2023-04-26T05:54:33.524Z,98797.53
2023-04-26T05:55:36.744Z,98807.38
2023-04-26T05:56:40.125Z,98804.71
2023-04-26T05:57:42.992Z,98806.55
2023-04-26T05:58:48.237Z,98806.55
2023-04-26T05:59:51.232Z,98798.53
2023-04-26T06:00:54.659Z,98803.87
2023-04-26T06:01:57.954Z,98797.66
2023-04-26T06:03:01.087Z,98791.35
2023-04-26T06:04:05.631Z,98802.88
2023-04-26T06:05:11.341Z,98804.71
2023-04-26T06:07:26.994Z,98792.16
2023-04-26T06:08:30.603Z,98797.53
2023-04-26T06:09:33.577Z,98795.73
2023-04-26T06:10:38.164Z,98799.37
2023-04-26T06:11:42.097Z,98794.86
2023-04-26T06:12:45.363Z,98795.73
2023-04-26T06:13:48.603Z,98803.74
2023-04-26T06:14:52.496Z,98798.53
2023-04-26T06:15:59.299Z,98799.37
2023-04-26T06:17:02.826Z,98803.74
2023-04-26T06:18:06.997Z,98797.53
2023-04-26T06:19:09.847Z,98801.08
2023-04-26T06:20:14.001Z,98795.73
2023-04-26T06:21:16.906Z,98794.73
2023-04-26T06:22:20.269Z,98797.41
2023-04-26T06:23:23.274Z,98800.08
2023-04-26T06:24:26.071Z,98803.74
2023-04-26T06:25:29.905Z,98801.08
2023-04-26T06:26:33.779Z,98801.20
2023-04-26T06:27:38.996Z,98805.55
2023-04-26T06:28:42.416Z,98803.87
2023-04-26T06:29:45.618Z,98802.04
2023-04-26T06:30:48.654Z,98803.87
2023-04-26T06:31:53.021Z,98802.17
2023-04-26T06:32:58.785Z,98798.63
2023-04-26T06:34:02.861Z,98803.97
2023-04-26T06:35:08.408Z,98801.42
2023-04-26T06:36:12.899Z,98805.93
2023-04-26T06:37:16.734Z,98797.91
2023-04-26T06:38:20.962Z,98799.75
2023-04-26T06:39:24.863Z,98803.26
2023-04-26T06:40:27.872Z,98801.42
2023-04-26T06:41:31.710Z,98799.75
2023-04-26T06:42:34.425Z,98798.88
2023-04-26T06:43:53.615Z,98803.38
2023-04-26T06:44:58.318Z,98804.35
2023-04-26T06:46:02.333Z,98801.68
2023-04-26T06:47:07.872Z,98807.02
2023-04-26T06:48:11.613Z,98804.35
2023-04-26T06:49:14.857Z,98795.50
2023-04-26T06:50:18.500Z,98796.46
2023-04-26T06:51:21.177Z,98795.50
2023-04-26T06:52:24.483Z,98798.17
2023-04-26T06:53:28.849Z,98797.30
2023-04-26T06:54:33.453Z,98789.28
2023-04-26T06:55:37.055Z,98792.08
2023-04-26T06:56:41.979Z,98800.97
2023-04-26T06:57:46.391Z,98794.88
2023-04-26T06:59:01.346Z,98797.43
2023-04-26T07:00:05.669Z,98797.43
2023-04-26T07:01:09.462Z,98793.92
2023-04-26T07:02:15.678Z,98804.61
2023-04-26T07:03:18.234Z,98804.61
2023-04-26T07:04:22.791Z,98805.57
2023-04-26T07:05:28.156Z,98806.41
2023-04-26T07:06:31.382Z,98808.23
2023-04-26T07:07:34.089Z,98792.34
2023-04-26T07:08:37.455Z,98800.23
2023-04-26T07:09:40.804Z,98800.23
2023-04-26T07:10:43.691Z,98789.05
2023-04-26T07:11:47.060Z,98789.05
2023-04-26T07:12:49.891Z,98799.39
2023-04-26T07:13:54.153Z,98797.55
2023-04-26T07:14:57.254Z,98795.02
2023-04-26T07:16:00.215Z,98807.41
2023-04-26T07:17:03.724Z,98806.53
2023-04-26T07:18:07.529Z,98805.70
2023-04-26T07:19:10.520Z,98808.37
2023-04-26T07:20:15.819Z,98811.03
2023-04-26T07:21:18.710Z,98813.71
2023-04-26T07:22:22.361Z,98806.66
2023-04-26T07:23:25.765Z,98811.16
2023-04-26T07:24:28.581Z,98809.33
2023-04-26T07:25:32.026Z,98812.00
2023-04-26T07:26:35.323Z,98812.00
2023-04-26T07:27:38.561Z,98812.00
2023-04-26T07:28:42.334Z,98806.66
2023-04-26T07:29:45.418Z,98815.67
2023-04-26T07:30:49.275Z,98809.33
2023-04-26T07:31:52.476Z,98811.03
2023-04-26T07:32:55.301Z,98806.66
2023-04-26T07:33:58.369Z,98810.20
2023-04-26T07:35:01.927Z,98807.53
2023-04-26T07:36:06.803Z,98803.86
2023-04-26T07:37:09.734Z,98808.37
2023-04-26T07:38:15.522Z,98809.33
2023-04-26T07:39:19.478Z,98809.20
2023-04-26T07:40:23.977Z,98813.71
2023-04-26T07:41:27.421Z,98805.83
2023-04-26T07:42:30.875Z,98805.95
2023-04-26T07:43:33.485Z,98802.41
2023-04-26T07:44:36.825Z,98806.91
2023-04-26T07:45:40.585Z,98793.94
2023-04-26T07:46:44.337Z,98793.94
2023-04-26T07:47:47.487Z,98807.66
2023-04-26T07:49:05.118Z,98802.31
2023-04-26T07:50:10.695Z,98804.98
2023-04-26T07:51:15.554Z,98808.49
2023-04-26T07:52:19.782Z,98805.95
2023-04-26T07:53:23.297Z,98802.41
2023-04-26T07:54:26.238Z,98809.59
2023-04-26T07:55:30.781Z,98809.59
2023-04-26T07:56:33.947Z,98811.29
2023-04-26T07:57:37.111Z,98807.75
2023-04-26T07:58:40.355Z,98808.62
2023-04-26T07:59:44.229Z,98813.00
2023-04-26T08:00:47.559Z,98811.29
2023-04-26T08:01:50.713Z,98808.49
2023-04-26T08:02:53.727Z,98813.00
2023-04-26T08:03:57.152Z,98812.00
2023-04-26T08:05:00.991Z,98816.51
2023-04-26T08:06:04.303Z,98809.33
2023-04-26T08:07:07.282Z,98812.87
2023-04-26T08:08:10.526Z,98822.56
2023-04-26T08:09:14.025Z,98815.41
2023-04-26T08:10:17.438Z,98817.22
2023-04-26T08:11:21.834Z,98828.77
2023-04-26T08:12:25.257Z,98821.59
2023-04-26T08:13:29.552Z,98827.77
2023-04-26T08:14:33.935Z,98820.76
2023-04-26T08:15:37.028Z,98821.59
2023-04-26T08:16:41.057Z,98821.72
2023-04-26T08:17:44.376Z,98819.77
2023-04-26T08:18:47.900Z,98827.77
2023-04-26T08:19:50.950Z,98825.10
2023-04-26T08:20:54.788Z,98825.10
2023-04-26T08:21:57.809Z,98826.94
2023-04-26T08:23:02.605Z,98820.63
2023-04-26T08:24:07.358Z,98824.27
2023-04-26T08:25:10.323Z,98827.77
2023-04-26T08:26:13.354Z,98825.10
2023-04-26T08:27:17.160Z,98829.61
2023-04-26T08:28:21.083Z,98823.30
2023-04-26T08:29:24.329Z,98830.45
2023-04-26T08:30:27.040Z,98829.61
2023-04-26T08:31:30.261Z,98825.10
2023-04-26T08:32:36.258Z,98825.10
2023-04-26T08:33:38.979Z,98826.10
2023-04-26T08:34:43.158Z,98826.10
2023-04-26T08:35:46.516Z,98826.10
2023-04-26T08:36:49.292Z,98821.72
2023-04-26T08:37:53.066Z,98823.55
2023-04-26T08:38:57.491Z,98823.55
2023-04-26T08:40:00.302Z,98821.02
2023-04-26T08:41:03.799Z,98821.97
2023-04-26T08:43:23.951Z,98812.23
2023-04-26T08:44:28.471Z,98820.27
2023-04-26T08:45:31.365Z,98819.43
2023-04-26T08:46:42.598Z,98831.79
2023-04-26T08:47:51.600Z,98827.31
2023-04-26T08:49:07.197Z,98828.03
2023-04-26T08:50:14.183Z,98827.06
2023-04-26T08:51:16.791Z,98819.89
2023-04-26T08:52:22.728Z,98823.43
2023-04-26T08:53:26.048Z,98827.77
2023-04-26T08:54:29.846Z,98820.76
2023-04-26T08:55:36.483Z,98827.77
2023-04-26T08:56:39.871Z,98834.83
2023-04-26T08:57:47.442Z,98823.30
2023-04-26T08:58:50.189Z,98819.77
2023-04-26T08:59:55.564Z,98825.01
2023-04-26T09:00:59.408Z,98828.52
2023-04-26T09:02:03.202Z,98823.17
2023-04-26T09:03:07.105Z,98822.21
2023-04-26T09:04:10.183Z,98819.54
2023-04-26T09:05:14.216Z,98821.22
2023-04-26T09:06:17.358Z,98820.25
2023-04-26T09:07:34.128Z,98821.13
2023-04-26T09:08:36.904Z,98824.63
2023-04-26T09:09:42.680Z,98821.13
2023-04-26T09:10:46.133Z,98816.62
2023-04-26T09:11:56.309Z,98819.28
2023-04-26T09:13:01.083Z,98811.27
2023-04-26T09:14:03.722Z,98810.44
2023-04-26T09:15:08.364Z,98813.11
2023-04-26T09:16:11.915Z,98820.25
2023-04-26T09:17:37.184Z,98814.07
2023-04-26T09:18:54.202Z,98814.91
2023-04-26T09:19:57.718Z,98807.98
2023-04-26T09:25:17.753Z,98807.51
2023-04-26T09:26:21.836Z,98813.58
2023-04-26T09:27:37.437Z,98807.41
2023-04-26T09:28:42.439Z,98805.57
2023-04-26T09:30:10.725Z,98814.42
2023-04-26T09:31:16.728Z,98809.95
2023-04-26T09:32:19.551Z,98807.27
2023-04-26T09:33:23.535Z,98809.82
2023-04-26T09:35:41.733Z,98806.41
2023-04-26T09:38:14.995Z,98804.71
2023-04-26T09:39:37.125Z,98814.33
2023-04-26T09:40:44.690Z,98828.39
2023-04-26T09:41:47.557Z,98819.54
2023-04-26T09:42:57.607Z,98812.49
2023-04-26T09:44:01.522Z,98823.89
2023-04-26T09:46:26.294Z,98821.23
2023-04-26T09:47:29.943Z,98823.80
2023-04-26T09:48:34.268Z,98827.30
2023-04-26T09:52:19.409Z,98824.61
2023-04-26T09:53:31.217Z,98827.17
2023-04-26T09:54:48.589Z,98830.69
2023-04-26T09:55:51.633Z,98829.72
2023-04-26T09:57:01.670Z,98833.13
2023-04-26T09:58:10.987Z,98827.79
2023-04-26T09:59:14.426Z,98836.52
2023-04-26T10:00:18.907Z,98835.55
2023-04-26T10:01:23.170Z,98837.26
2023-04-26T10:02:27.559Z,98837.97
2023-04-26T10:03:32.471Z,98839.67
2023-04-26T10:04:36.525Z,98839.67
2023-04-26T10:05:40.481Z,98832.50
2023-04-26T10:06:44.657Z,98839.55
2023-04-26T10:07:47.959Z,98843.06
2023-04-26T10:08:52.307Z,98833.23
2023-04-26T10:09:55.778Z,98841.13
2023-04-26T10:11:01.148Z,98837.46
2023-04-26T10:12:04.573Z,98843.55
2023-04-26T10:13:07.432Z,98843.55
2023-04-26T10:14:10.517Z,98839.91
2023-04-26T10:15:14.661Z,98846.92
2023-04-26T10:16:17.507Z,98839.66
2023-04-26T10:17:21.872Z,98841.48
2023-04-26T10:18:25.290Z,98841.36
2023-04-26T10:20:44.598Z,98843.03
2023-04-26T10:21:48.542Z,98843.91
2023-04-26T10:24:07.029Z,98846.42
2023-04-26T10:25:09.694Z,98840.14
2023-04-26T10:26:55.250Z,98844.48
2023-04-26T10:27:58.442Z,98839.02
2023-04-26T10:29:02.864Z,98840.59
2023-04-26T10:30:07.428Z,98839.75
2023-04-26T10:31:10.028Z,98847.64
2023-04-26T10:32:15.202Z,98829.89
2023-04-26T10:33:18.832Z,98843.13
2023-04-26T10:34:22.670Z,98839.49
2023-04-26T10:36:44.072Z,98834.98
2023-04-26T10:38:03.102Z,98839.36
2023-04-26T10:39:21.997Z,98840.23
2023-04-26T10:40:30.558Z,98840.11
2023-04-26T10:41:37.246Z,98834.76
2023-04-26T10:42:41.635Z,98838.27
2023-04-26T10:43:47.786Z,98841.81
2023-04-26T10:44:52.287Z,98847.03
2023-04-26T10:45:58.474Z,98841.81
2023-04-26T10:47:01.617Z,98837.30
2023-04-26T10:48:23.363Z,98838.14
2023-04-26T10:49:26.870Z,98843.48
2023-04-26T10:50:30.301Z,98843.36
2023-04-26T10:51:34.860Z,98843.36
2023-04-26T10:53:04.065Z,98829.98
2023-04-26T10:54:07.135Z,98838.88
2023-04-26T10:55:10.975Z,98836.20
2023-04-26T10:56:27.812Z,98835.34
2023-04-26T10:57:52.106Z,98835.47
2023-04-26T11:00:29.225Z,98835.47
2023-04-26T11:01:32.305Z,98843.48
2023-04-26T11:04:08.639Z,98841.91
2023-04-26T11:05:11.976Z,98846.42
2023-04-26T11:06:15.706Z,98846.55
2023-04-26T11:07:35.675Z,98844.84
2023-04-26T11:08:38.506Z,98835.98
2023-04-26T11:09:44.400Z,98845.70
2023-04-26T11:12:26.753Z,98841.30
2023-04-26T11:13:32.817Z,98835.98
2023-04-26T11:14:37.057Z,98844.13
2023-04-26T11:15:39.948Z,98841.33
2023-04-26T11:16:43.960Z,98839.49
2023-04-26T11:17:47.261Z,98837.69
2023-04-26T11:18:50.315Z,98831.34
2023-04-26T11:19:53.689Z,98836.69
2023-04-26T11:20:57.741Z,98836.69
2023-04-26T11:22:01.365Z,98842.78
2023-04-26T11:24:16.302Z,98836.66
2023-04-26T11:25:19.444Z,98845.45
2023-04-26T11:26:24.630Z,98847.16
2023-04-26T11:27:27.995Z,98839.14
2023-04-26T11:28:34.060Z,98836.47
2023-04-26T11:29:36.926Z,98839.84
2023-04-26T11:30:40.806Z,98833.66
2023-04-26T11:31:43.938Z,98836.34
2023-04-26T11:32:48.035Z,98831.83
2023-04-26T11:33:52.035Z,98835.34
2023-04-26T11:34:54.933Z,98837.05
2023-04-26T11:35:57.648Z,98836.20
2023-04-26T11:37:05.475Z,98831.70
2023-04-26T11:39:20.384Z,98837.88
2023-04-26T11:40:23.497Z,98834.24
2023-04-26T11:41:26.332Z,98836.08
2023-04-26T11:42:31.066Z,98829.77
2023-04-26T11:43:38.843Z,98835.95
2023-04-26T11:44:41.670Z,98830.60
2023-04-26T11:45:44.337Z,98837.78
2023-04-26T11:46:50.913Z,98839.45
2023-04-26T11:47:53.908Z,98836.78
2023-04-26T11:48:56.725Z,98839.45
2023-04-26T11:49:59.832Z,98837.66
2023-04-26T11:51:05.031Z,98844.80
2023-04-26T11:52:08.346Z,98835.81
2023-04-26T11:53:12.530Z,98841.16
2023-04-26T11:55:46.150Z,98836.64
2023-04-26T11:56:50.245Z,98835.69
2023-04-26T11:57:52.758Z,98836.66
2023-04-26T11:58:57.925Z,98836.55
2023-04-26T12:01:28.539Z,98828.63
2023-04-26T12:02:31.426Z,98833.98
2023-04-26T12:03:37.546Z,98833.02
2023-04-26T12:04:41.769Z,98831.31
2023-04-26T12:07:03.528Z,98829.46
2023-04-26T12:08:08.529Z,98824.16
2023-04-26T12:09:12.541Z,98828.54
2023-04-26T12:10:20.540Z,98824.99
2023-04-26T12:11:23.293Z,98824.16
2023-04-26T12:12:26.089Z,98824.16
2023-04-26T12:13:30.652Z,98826.70
2023-04-26T12:14:34.570Z,98829.38
2023-04-26T12:15:37.502Z,98827.54
2023-04-26T12:16:43.284Z,98817.71
2023-04-26T12:18:01.146Z,98823.90
2023-04-26T12:20:20.392Z,98822.08
2023-04-26T12:22:39.058Z,98817.56
2023-04-26T12:23:44.934Z,98820.25
2023-04-26T12:24:48.971Z,98817.32
2023-04-26T12:26:04.667Z,98819.16
2023-04-26T12:27:08.745Z,98817.32
2023-04-26T12:28:13.357Z,98820.70
2023-04-26T12:29:16.413Z,98819.73
2023-04-26T12:30:19.428Z,98830.43
2023-04-26T12:31:25.428Z,98822.31
2023-04-26T12:32:30.462Z,98824.02
2023-04-26T12:33:33.830Z,98824.02
2023-04-26T12:34:38.078Z,98819.63
2023-04-26T12:35:41.177Z,98829.23
2023-04-26T12:36:43.976Z,98820.50
2023-04-26T12:37:48.464Z,98827.42
2023-04-26T12:38:51.154Z,98830.10
2023-04-26T12:39:53.915Z,98827.42
2023-04-26T12:40:58.522Z,98819.41
2023-04-26T12:42:02.532Z,98821.08
2023-04-26T12:43:06.952Z,98830.81
2023-04-26T12:44:11.537Z,98830.81
2023-04-26T12:45:16.347Z,98833.48
2023-04-26T12:46:19.114Z,98827.16
2023-04-26T12:47:23.176Z,98827.16
2023-04-26T12:48:26.929Z,98836.89
2023-04-26T12:49:30.217Z,98825.20
2023-04-26T12:50:33.779Z,98832.38
2023-04-26T12:51:37.500Z,98834.22
2023-04-26T12:52:40.756Z,98833.48
2023-04-26T12:53:44.884Z,98831.77
2023-04-26T12:54:52.981Z,98835.55
2023-04-26T12:55:57.622Z,98838.35
2023-04-26T12:57:01.413Z,98834.07
2023-04-26T12:58:04.291Z,98833.36
2023-04-26T12:59:08.145Z,98843.22
2023-04-26T13:00:13.844Z,98836.16
2023-04-26T13:01:16.587Z,98830.08
2023-04-26T13:02:19.971Z,98829.24
2023-04-26T13:03:22.777Z,98826.70
2023-04-26T13:04:26.569Z,98828.54
2023-04-26T13:05:29.400Z,98833.98
2023-04-26T13:06:32.062Z,98832.31
2023-04-26T13:07:35.825Z,98833.27
2023-04-26T13:08:38.626Z,98835.81
2023-04-26T13:09:41.307Z,98821.97
2023-04-26T13:10:45.416Z,98821.97
2023-04-26T13:11:48.796Z,98842.13
2023-04-26T13:12:53.311Z,98834.98
2023-04-26T13:13:57.167Z,98842.00
2023-04-26T13:15:00.464Z,98846.52